Terminal Aerodrome Forecast
Issued by NWS Portland, OR

Home | Current Version | Previous Version | Text Only | Print | Product List | Glossary On
Versions: 1 2 3 4 5 6 7 8 9 10 11 12 13 14 15 16 17 18 19 20 21 22 23 24 25 26 27 28
000
FTUS46 KPQR 021741
TAFSLE
TAF
KSLE 021741Z 0218/0318 VRB03KT P6SM -SHRA SCT120 BKN150
     FM021900 31009KT P6SM -SHRA SCT120 BKN150
     FM022300 30009KT P6SM -SHRA BKN120
     FM030500 VRB03KT P6SM VCSH BKN120=

USA.gov is the U.S. government's official web portal to all federal, state and local government web resources and services.